sensor_id;sensor_type;location;lat;lon;timestamp;temperature;humidity
12303;DHT22;6214;48.012;7.862;2023-02-13T00:00:31;3.00;99.90
12303;DHT22;6214;48.012;7.862;2023-02-13T00:02:58;3.00;99.90
12303;DHT22;6214;48.012;7.862;2023-02-13T00:05:25;2.90;99.90
12303;DHT22;6214;48.012;7.862;2023-02-13T00:07:52;2.80;99.90
12303;DHT22;6214;48.012;7.862;2023-02-13T00:10:18;2.80;99.90
12303;DHT22;6214;48.012;7.862;2023-02-13T00:12:45;2.90;99.90
12303;DHT22;6214;48.012;7.862;2023-02-13T00:15:12;2.80;99.90
12303;DHT22;6214;48.012;7.862;2023-02-13T00:17:39;2.80;99.90
12303;DHT22;6214;48.012;7.862;2023-02-13T00:20:06;2.80;99.90
12303;DHT22;6214;48.012;7.862;2023-02-13T00:22:37;2.70;99.90
12303;DHT22;6214;48.012;7.862;2023-02-13T00:25:05;2.80;99.90
12303;DHT22;6214;48.012;7.862;2023-02-13T00:27:32;2.70;99.90
12303;DHT22;6214;48.012;7.862;2023-02-13T00:29:59;2.60;99.90
12303;DHT22;6214;48.012;7.862;2023-02-13T00:32:26;2.60;99.90
12303;DHT22;6214;48.012;7.862;2023-02-13T00:34:52;2.70;99.90
12303;DHT22;6214;48.012;7.862;2023-02-13T00:37:19;2.70;99.90
12303;DHT22;6214;48.012;7.862;2023-02-13T00:39:46;2.70;99.90
12303;DHT22;6214;48.012;7.862;2023-02-13T00:42:13;2.70;99.90
12303;DHT22;6214;48.012;7.862;2023-02-13T00:44:39;2.70;99.90
12303;DHT22;6214;48.012;7.862;2023-02-13T00:47:06;2.70;99.90
12303;DHT22;6214;48.012;7.862;2023-02-13T00:49:33;2.80;99.90
12303;DHT22;6214;48.012;7.862;2023-02-13T00:52:00;2.80;99.90
12303;DHT22;6214;48.012;7.862;2023-02-13T00:54:27;2.70;99.90
12303;DHT22;6214;48.012;7.862;2023-02-13T00:56:53;2.70;99.90
12303;DHT22;6214;48.012;7.862;2023-02-13T00:59:20;2.70;99.90
12303;DHT22;6214;48.012;7.862;2023-02-13T01:01:47;2.70;99.90
12303;DHT22;6214;48.012;7.862;2023-02-13T01:04:14;2.70;99.90
12303;DHT22;6214;48.012;7.862;2023-02-13T01:06:41;2.70;99.90
12303;DHT22;6214;48.012;7.862;2023-02-13T01:09:08;2.60;99.90
12303;DHT22;6214;48.012;7.862;2023-02-13T01:11:34;2.70;99.90
12303;DHT22;6214;48.012;7.862;2023-02-13T01:14:01;2.60;99.90
12303;DHT22;6214;48.012;7.862;2023-02-13T01:16:28;2.50;99.90
12303;DHT22;6214;48.012;7.862;2023-02-13T01:18:55;2.50;99.90
12303;DHT22;6214;48.012;7.862;2023-02-13T01:21:22;2.60;99.90
12303;DHT22;6214;48.012;7.862;2023-02-13T01:23:49;2.50;99.90
12303;DHT22;6214;48.012;7.862;2023-02-13T01:26:22;2.40;99.90
12303;DHT22;6214;48.012;7.862;2023-02-13T01:28:53;2.50;99.90
12303;DHT22;6214;48.012;7.862;2023-02-13T01:31:21;2.50;99.90
12303;DHT22;6214;48.012;7.862;2023-02-13T01:33:48;2.50;99.90
12303;DHT22;6214;48.012;7.862;2023-02-13T01:36:15;2.60;99.90
12303;DHT22;6214;48.012;7.862;2023-02-13T01:38:42;2.60;99.90
12303;DHT22;6214;48.012;7.862;2023-02-13T01:41:09;2.50;99.90
12303;DHT22;6214;48.012;7.862;2023-02-13T01:44:02;2.50;99.90
12303;DHT22;6214;48.012;7.862;2023-02-13T01:46:38;2.00;99.90
12303;DHT22;6214;48.012;7.862;2023-02-13T01:49:14;2.60;99.90
12303;DHT22;6214;48.012;7.862;2023-02-13T01:51:44;2.60;99.90
12303;DHT22;6214;48.012;7.862;2023-02-13T01:54:20;2.60;99.90
12303;DHT22;6214;48.012;7.862;2023-02-13T01:56:50;2.60;99.90
12303;DHT22;6214;48.012;7.862;2023-02-13T01:59:22;2.50;99.90
12303;DHT22;6214;48.012;7.862;2023-02-13T02:01:50;2.50;99.90
12303;DHT22;6214;48.012;7.862;2023-02-13T02:04:35;2.60;99.90
12303;DHT22;6214;48.012;7.862;2023-02-13T02:07:07;2.50;99.90
12303;DHT22;6214;48.012;7.862;2023-02-13T02:09:38;2.40;99.90
12303;DHT22;6214;48.012;7.862;2023-02-13T02:14:48;2.60;99.90
12303;DHT22;6214;48.012;7.862;2023-02-13T02:17:16;2.50;99.90
12303;DHT22;6214;48.012;7.862;2023-02-13T02:19:57;2.60;99.90
12303;DHT22;6214;48.012;7.862;2023-02-13T02:28:52;2.40;99.90
12303;DHT22;6214;48.012;7.862;2023-02-13T02:34:48;2.40;99.90
12303;DHT22;6214;48.012;7.862;2023-02-13T02:50:38;2.30;99.90
12303;DHT22;6214;48.012;7.862;2023-02-13T02:53:35;2.40;99.90
12303;DHT22;6214;48.012;7.862;2023-02-13T02:56:19;2.40;99.90
12303;DHT22;6214;48.012;7.862;2023-02-13T02:58:52;2.30;99.90
12303;DHT22;6214;48.012;7.862;2023-02-13T03:01:40;1.40;99.90
12303;DHT22;6214;48.012;7.862;2023-02-13T03:04:34;2.30;99.90
12303;DHT22;6214;48.012;7.862;2023-02-13T03:07:20;2.40;99.90
12303;DHT22;6214;48.012;7.862;2023-02-13T03:09:51;2.40;99.90
12303;DHT22;6214;48.012;7.862;2023-02-13T03:13:00;2.30;99.90
12303;DHT22;6214;48.012;7.862;2023-02-13T03:15:56;2.40;99.90
12303;DHT22;6214;48.012;7.862;2023-02-13T03:18:52;2.40;99.90
12303;DHT22;6214;48.012;7.862;2023-02-13T03:27:24;2.30;99.90
12303;DHT22;6214;48.012;7.862;2023-02-13T03:30:41;2.10;99.90
12303;DHT22;6214;48.012;7.862;2023-02-13T03:33:49;2.00;99.90
12303;DHT22;6214;48.012;7.862;2023-02-13T03:36:49;2.10;99.90
12303;DHT22;6214;48.012;7.862;2023-02-13T03:44:59;2.00;99.90
12303;DHT22;6214;48.012;7.862;2023-02-13T03:47:48;2.00;99.90
12303;DHT22;6214;48.012;7.862;2023-02-13T03:50:17;2.00;99.90
12303;DHT22;6214;48.012;7.862;2023-02-13T03:55:21;2.10;99.90
12303;DHT22;6214;48.012;7.862;2023-02-13T03:58:18;2.10;99.90
12303;DHT22;6214;48.012;7.862;2023-02-13T04:01:12;2.00;99.90
12303;DHT22;6214;48.012;7.862;2023-02-13T04:03:55;2.00;99.90
12303;DHT22;6214;48.012;7.862;2023-02-13T04:06:56;2.00;99.90
12303;DHT22;6214;48.012;7.862;2023-02-13T04:09:26;2.00;99.90
12303;DHT22;6214;48.012;7.862;2023-02-13T04:12:15;2.00;99.90
12303;DHT22;6214;48.012;7.862;2023-02-13T04:15:06;1.90;99.90
12303;DHT22;6214;48.012;7.862;2023-02-13T04:17:47;1.90;99.90
12303;DHT22;6214;48.012;7.862;2023-02-13T04:20:15;1.90;99.90
12303;DHT22;6214;48.012;7.862;2023-02-13T04:22:44;1.90;99.90
12303;DHT22;6214;48.012;7.862;2023-02-13T04:25:13;1.70;99.90
12303;DHT22;6214;48.012;7.862;2023-02-13T04:27:41;1.70;99.90
12303;DHT22;6214;48.012;7.862;2023-02-13T04:30:08;1.80;99.90
12303;DHT22;6214;48.012;7.862;2023-02-13T04:32:35;1.80;99.90
12303;DHT22;6214;48.012;7.862;2023-02-13T04:35:02;1.70;99.90
12303;DHT22;6214;48.012;7.862;2023-02-13T04:37:29;1.80;99.90
12303;DHT22;6214;48.012;7.862;2023-02-13T04:39:56;1.80;99.90
12303;DHT22;6214;48.012;7.862;2023-02-13T04:42:22;1.80;99.90
12303;DHT22;6214;48.012;7.862;2023-02-13T04:44:49;1.70;99.90
12303;DHT22;6214;48.012;7.862;2023-02-13T04:47:16;1.70;99.90
12303;DHT22;6214;48.012;7.862;2023-02-13T04:49:43;1.70;99.90
12303;DHT22;6214;48.012;7.862;2023-02-13T04:52:09;1.70;99.90
12303;DHT22;6214;48.012;7.862;2023-02-13T04:54:36;1.70;99.90
12303;DHT22;6214;48.012;7.862;2023-02-13T04:57:03;1.70;99.90
12303;DHT22;6214;48.012;7.862;2023-02-13T04:59:30;1.70;99.90
12303;DHT22;6214;48.012;7.862;2023-02-13T05:01:56;1.70;99.90
12303;DHT22;6214;48.012;7.862;2023-02-13T05:04:24;1.60;99.90
12303;DHT22;6214;48.012;7.862;2023-02-13T05:06:51;1.70;99.90
12303;DHT22;6214;48.012;7.862;2023-02-13T05:09:18;1.70;99.90
12303;DHT22;6214;48.012;7.862;2023-02-13T05:11:45;1.70;99.90
12303;DHT22;6214;48.012;7.862;2023-02-13T05:14:11;1.70;99.90
12303;DHT22;6214;48.012;7.862;2023-02-13T05:16:38;1.80;99.90
12303;DHT22;6214;48.012;7.862;2023-02-13T05:19:05;1.70;99.90
12303;DHT22;6214;48.012;7.862;2023-02-13T05:21:32;1.60;99.90
12303;DHT22;6214;48.012;7.862;2023-02-13T05:24:17;1.70;99.90
12303;DHT22;6214;48.012;7.862;2023-02-13T05:26:46;1.60;99.90
12303;DHT22;6214;48.012;7.862;2023-02-13T05:29:13;1.50;99.90
12303;DHT22;6214;48.012;7.862;2023-02-13T05:31:50;1.50;99.90
12303;DHT22;6214;48.012;7.862;2023-02-13T05:34:23;1.60;99.90
12303;DHT22;6214;48.012;7.862;2023-02-13T05:36:50;1.60;99.90
12303;DHT22;6214;48.012;7.862;2023-02-13T05:39:17;1.60;99.90
12303;DHT22;6214;48.012;7.862;2023-02-13T05:41:45;1.60;99.90
12303;DHT22;6214;48.012;7.862;2023-02-13T05:44:12;1.60;99.90
12303;DHT22;6214;48.012;7.862;2023-02-13T05:46:41;1.50;99.90
12303;DHT22;6214;48.012;7.862;2023-02-13T05:49:09;1.60;99.90
12303;DHT22;6214;48.012;7.862;2023-02-13T05:51:36;1.50;99.90
12303;DHT22;6214;48.012;7.862;2023-02-13T05:54:03;1.40;99.90
12303;DHT22;6214;48.012;7.862;2023-02-13T05:56:30;1.40;99.90
12303;DHT22;6214;48.012;7.862;2023-02-13T05:58:57;1.40;99.90
12303;DHT22;6214;48.012;7.862;2023-02-13T06:01:24;1.40;99.90
12303;DHT22;6214;48.012;7.862;2023-02-13T06:03:51;1.50;99.90
12303;DHT22;6214;48.012;7.862;2023-02-13T06:06:18;1.60;99.90
12303;DHT22;6214;48.012;7.862;2023-02-13T06:08:45;1.50;99.90
12303;DHT22;6214;48.012;7.862;2023-02-13T06:11:12;1.60;99.90
12303;DHT22;6214;48.012;7.862;2023-02-13T06:13:39;1.60;99.90
12303;DHT22;6214;48.012;7.862;2023-02-13T06:16:10;1.60;99.90
12303;DHT22;6214;48.012;7.862;2023-02-13T06:18:38;1.50;99.90
12303;DHT22;6214;48.012;7.862;2023-02-13T06:21:06;1.50;99.90
12303;DHT22;6214;48.012;7.862;2023-02-13T06:23:33;1.20;99.90
12303;DHT22;6214;48.012;7.862;2023-02-13T06:26:07;1.40;99.90
12303;DHT22;6214;48.012;7.862;2023-02-13T06:28:34;1.40;99.90
12303;DHT22;6214;48.012;7.862;2023-02-13T06:31:01;1.40;99.90
12303;DHT22;6214;48.012;7.862;2023-02-13T06:33:28;1.40;99.90
12303;DHT22;6214;48.012;7.862;2023-02-13T06:35:55;1.40;99.90
12303;DHT22;6214;48.012;7.862;2023-02-13T06:38:22;1.50;99.90
12303;DHT22;6214;48.012;7.862;2023-02-13T06:40:50;1.50;99.90
12303;DHT22;6214;48.012;7.862;2023-02-13T06:43:17;1.60;99.90
12303;DHT22;6214;48.012;7.862;2023-02-13T06:45:44;1.70;99.90
12303;DHT22;6214;48.012;7.862;2023-02-13T06:48:12;1.80;99.90
12303;DHT22;6214;48.012;7.862;2023-02-13T06:50:40;1.80;99.90
12303;DHT22;6214;48.012;7.862;2023-02-13T06:53:07;1.70;99.90
12303;DHT22;6214;48.012;7.862;2023-02-13T06:55:34;1.70;99.90
12303;DHT22;6214;48.012;7.862;2023-02-13T06:58:01;1.60;99.90
12303;DHT22;6214;48.012;7.862;2023-02-13T07:00:28;1.70;99.90
12303;DHT22;6214;48.012;7.862;2023-02-13T07:03:04;1.70;99.90
12303;DHT22;6214;48.012;7.862;2023-02-13T07:05:31;1.90;99.90
12303;DHT22;6214;48.012;7.862;2023-02-13T07:07:58;1.90;99.90
12303;DHT22;6214;48.012;7.862;2023-02-13T07:10:25;1.90;99.90
12303;DHT22;6214;48.012;7.862;2023-02-13T07:12:52;2.00;99.90
12303;DHT22;6214;48.012;7.862;2023-02-13T07:15:34;1.90;99.90
12303;DHT22;6214;48.012;7.862;2023-02-13T07:18:02;2.00;99.90
12303;DHT22;6214;48.012;7.862;2023-02-13T07:20:29;1.90;99.90
12303;DHT22;6214;48.012;7.862;2023-02-13T07:22:58;1.90;99.90
12303;DHT22;6214;48.012;7.862;2023-02-13T07:25:25;1.90;99.90
12303;DHT22;6214;48.012;7.862;2023-02-13T07:27:52;2.10;99.90
12303;DHT22;6214;48.012;7.862;2023-02-13T07:30:19;2.30;99.90
12303;DHT22;6214;48.012;7.862;2023-02-13T07:32:46;2.60;99.90
12303;DHT22;6214;48.012;7.862;2023-02-13T07:35:13;2.60;99.90
12303;DHT22;6214;48.012;7.862;2023-02-13T07:37:40;2.70;99.90
12303;DHT22;6214;48.012;7.862;2023-02-13T07:40:07;2.60;99.90
12303;DHT22;6214;48.012;7.862;2023-02-13T07:42:34;2.60;99.90
12303;DHT22;6214;48.012;7.862;2023-02-13T07:45:01;2.70;99.90
12303;DHT22;6214;48.012;7.862;2023-02-13T07:47:32;3.00;99.90
12303;DHT22;6214;48.012;7.862;2023-02-13T07:50:00;3.30;99.90
12303;DHT22;6214;48.012;7.862;2023-02-13T07:52:27;3.60;99.90
12303;DHT22;6214;48.012;7.862;2023-02-13T07:54:54;4.00;99.90
12303;DHT22;6214;48.012;7.862;2023-02-13T07:57:21;4.00;99.90
12303;DHT22;6214;48.012;7.862;2023-02-13T07:59:47;4.10;99.90
12303;DHT22;6214;48.012;7.862;2023-02-13T08:02:15;4.30;99.90
12303;DHT22;6214;48.012;7.862;2023-02-13T08:04:42;4.50;99.90
12303;DHT22;6214;48.012;7.862;2023-02-13T08:07:16;4.60;99.90
12303;DHT22;6214;48.012;7.862;2023-02-13T08:09:44;4.70;99.90
12303;DHT22;6214;48.012;7.862;2023-02-13T08:12:30;5.10;99.90
12303;DHT22;6214;48.012;7.862;2023-02-13T08:14:58;5.40;99.90
12303;DHT22;6214;48.012;7.862;2023-02-13T08:17:25;5.60;99.90
12303;DHT22;6214;48.012;7.862;2023-02-13T08:19:52;5.70;99.90
12303;DHT22;6214;48.012;7.862;2023-02-13T08:22:18;5.90;99.90
12303;DHT22;6214;48.012;7.862;2023-02-13T08:24:45;6.10;99.90
12303;DHT22;6214;48.012;7.862;2023-02-13T08:27:13;6.30;99.90
12303;DHT22;6214;48.012;7.862;2023-02-13T08:29:40;6.60;99.90
12303;DHT22;6214;48.012;7.862;2023-02-13T08:32:07;6.80;99.90
12303;DHT22;6214;48.012;7.862;2023-02-13T08:34:34;6.90;99.90
12303;DHT22;6214;48.012;7.862;2023-02-13T08:37:01;6.90;99.90
12303;DHT22;6214;48.012;7.862;2023-02-13T08:39:28;6.90;99.90
12303;DHT22;6214;48.012;7.862;2023-02-13T08:41:55;6.70;99.90
12303;DHT22;6214;48.012;7.862;2023-02-13T08:44:22;6.30;99.90
12303;DHT22;6214;48.012;7.862;2023-02-13T08:46:48;6.20;99.90
12303;DHT22;6214;48.012;7.862;2023-02-13T08:49:15;6.10;99.90
12303;DHT22;6214;48.012;7.862;2023-02-13T08:51:42;6.20;99.90
12303;DHT22;6214;48.012;7.862;2023-02-13T08:54:09;6.20;99.90
12303;DHT22;6214;48.012;7.862;2023-02-13T08:56:36;6.50;99.90
12303;DHT22;6214;48.012;7.862;2023-02-13T08:59:03;6.70;99.90
12303;DHT22;6214;48.012;7.862;2023-02-13T09:01:30;7.10;99.90
12303;DHT22;6214;48.012;7.862;2023-02-13T09:03:56;7.20;99.90
12303;DHT22;6214;48.012;7.862;2023-02-13T09:06:23;7.40;99.90
12303;DHT22;6214;48.012;7.862;2023-02-13T09:08:52;7.50;99.90
12303;DHT22;6214;48.012;7.862;2023-02-13T09:11:19;7.50;99.90
12303;DHT22;6214;48.012;7.862;2023-02-13T09:13:51;7.70;99.90
12303;DHT22;6214;48.012;7.862;2023-02-13T09:16:19;8.00;99.90
12303;DHT22;6214;48.012;7.862;2023-02-13T09:18:50;8.50;99.90
12303;DHT22;6214;48.012;7.862;2023-02-13T09:21:19;8.80;99.90
12303;DHT22;6214;48.012;7.862;2023-02-13T09:23:46;9.10;99.90
12303;DHT22;6214;48.012;7.862;2023-02-13T09:26:14;9.50;99.90
12303;DHT22;6214;48.012;7.862;2023-02-13T09:28:41;9.80;99.90
12303;DHT22;6214;48.012;7.862;2023-02-13T09:31:11;9.80;99.90
12303;DHT22;6214;48.012;7.862;2023-02-13T09:33:41;9.90;99.90
12303;DHT22;6214;48.012;7.862;2023-02-13T09:36:14;10.00;99.90
12303;DHT22;6214;48.012;7.862;2023-02-13T09:38:41;10.00;99.90
12303;DHT22;6214;48.012;7.862;2023-02-13T09:41:28;9.70;99.90
12303;DHT22;6214;48.012;7.862;2023-02-13T09:47:36;9.30;99.90
12303;DHT22;6214;48.012;7.862;2023-02-13T09:50:18;9.10;99.90
12303;DHT22;6214;48.012;7.862;2023-02-13T09:52:50;8.70;99.90
12303;DHT22;6214;48.012;7.862;2023-02-13T09:55:20;8.70;99.90
12303;DHT22;6214;48.012;7.862;2023-02-13T09:58:46;8.50;99.90
12303;DHT22;6214;48.012;7.862;2023-02-13T10:06:43;8.70;99.90
12303;DHT22;6214;48.012;7.862;2023-02-13T10:14:57;9.00;99.90
12303;DHT22;6214;48.012;7.862;2023-02-13T10:17:37;9.10;99.90
12303;DHT22;6214;48.012;7.862;2023-02-13T10:20:16;9.20;99.90
12303;DHT22;6214;48.012;7.862;2023-02-13T10:22:49;9.10;99.90
12303;DHT22;6214;48.012;7.862;2023-02-13T10:25:23;9.30;99.90
12303;DHT22;6214;48.012;7.862;2023-02-13T10:28:06;9.20;99.90
12303;DHT22;6214;48.012;7.862;2023-02-13T10:30:51;9.10;99.90
12303;DHT22;6214;48.012;7.862;2023-02-13T10:33:27;9.10;99.90
12303;DHT22;6214;48.012;7.862;2023-02-13T10:36:01;9.30;99.90
12303;DHT22;6214;48.012;7.862;2023-02-13T10:38:32;9.40;99.90
12303;DHT22;6214;48.012;7.862;2023-02-13T10:58:15;9.60;99.90
12303;DHT22;6214;48.012;7.862;2023-02-13T11:03:18;9.50;99.90
12303;DHT22;6214;48.012;7.862;2023-02-13T11:05:46;9.50;99.90
12303;DHT22;6214;48.012;7.862;2023-02-13T11:08:17;9.20;99.90
12303;DHT22;6214;48.012;7.862;2023-02-13T11:10:46;9.20;99.90
12303;DHT22;6214;48.012;7.862;2023-02-13T11:13:20;9.30;99.90
12303;DHT22;6214;48.012;7.862;2023-02-13T11:16:03;9.20;99.90
12303;DHT22;6214;48.012;7.862;2023-02-13T11:18:36;9.40;99.90
12303;DHT22;6214;48.012;7.862;2023-02-13T11:21:15;9.50;99.90
12303;DHT22;6214;48.012;7.862;2023-02-13T11:23:54;9.40;99.90
12303;DHT22;6214;48.012;7.862;2023-02-13T11:26:28;9.70;99.90
12303;DHT22;6214;48.012;7.862;2023-02-13T11:28:59;9.80;99.90
12303;DHT22;6214;48.012;7.862;2023-02-13T11:31:30;9.90;99.90
12303;DHT22;6214;48.012;7.862;2023-02-13T11:34:16;9.80;99.90
12303;DHT22;6214;48.012;7.862;2023-02-13T11:36:43;9.80;99.90
12303;DHT22;6214;48.012;7.862;2023-02-13T11:39:21;9.40;99.90
12303;DHT22;6214;48.012;7.862;2023-02-13T11:41:49;9.50;99.90
12303;DHT22;6214;48.012;7.862;2023-02-13T11:44:27;9.50;99.90
12303;DHT22;6214;48.012;7.862;2023-02-13T11:46:57;9.60;99.90
12303;DHT22;6214;48.012;7.862;2023-02-13T11:49:29;9.70;99.90
12303;DHT22;6214;48.012;7.862;2023-02-13T11:52:02;9.90;99.90
12303;DHT22;6214;48.012;7.862;2023-02-13T11:57:22;9.60;99.90
12303;DHT22;6214;48.012;7.862;2023-02-13T11:59:49;9.80;99.90
12303;DHT22;6214;48.012;7.862;2023-02-13T12:02:46;9.80;99.90
12303;DHT22;6214;48.012;7.862;2023-02-13T12:05:16;9.90;99.90
12303;DHT22;6214;48.012;7.862;2023-02-13T12:07:44;9.90;99.90
12303;DHT22;6214;48.012;7.862;2023-02-13T12:13:04;9.50;99.90
12303;DHT22;6214;48.012;7.862;2023-02-13T12:15:35;9.60;99.90
12303;DHT22;6214;48.012;7.862;2023-02-13T12:18:35;9.80;99.90
12303;DHT22;6214;48.012;7.862;2023-02-13T12:23:56;10.00;99.90
12303;DHT22;6214;48.012;7.862;2023-02-13T12:26:29;9.80;99.90
12303;DHT22;6214;48.012;7.862;2023-02-13T12:42:59;10.30;99.90
12303;DHT22;6214;48.012;7.862;2023-02-13T12:45:50;10.20;99.90
12303;DHT22;6214;48.012;7.862;2023-02-13T12:48:38;10.20;99.90
12303;DHT22;6214;48.012;7.862;2023-02-13T12:51:34;10.50;99.90
12303;DHT22;6214;48.012;7.862;2023-02-13T13:02:09;10.40;99.90
12303;DHT22;6214;48.012;7.862;2023-02-13T13:07:30;10.40;99.90
12303;DHT22;6214;48.012;7.862;2023-02-13T13:12:51;10.40;99.90
12303;DHT22;6214;48.012;7.862;2023-02-13T13:15:44;10.30;99.90
12303;DHT22;6214;48.012;7.862;2023-02-13T13:18:16;10.20;99.90
12303;DHT22;6214;48.012;7.862;2023-02-13T13:26:11;10.30;99.90
12303;DHT22;6214;48.012;7.862;2023-02-13T13:28:44;10.50;99.90
12303;DHT22;6214;48.012;7.862;2023-02-13T13:31:12;10.30;99.90
12303;DHT22;6214;48.012;7.862;2023-02-13T13:33:42;10.30;99.90
12303;DHT22;6214;48.012;7.862;2023-02-13T13:38:42;10.50;99.90
12303;DHT22;6214;48.012;7.862;2023-02-13T13:41:17;10.60;99.90
12303;DHT22;6214;48.012;7.862;2023-02-13T13:44:24;10.70;99.90
12303;DHT22;6214;48.012;7.862;2023-02-13T13:46:57;10.70;99.90
12303;DHT22;6214;48.012;7.862;2023-02-13T13:49:36;10.70;99.90
12303;DHT22;6214;48.012;7.862;2023-02-13T13:52:21;10.60;99.90
12303;DHT22;6214;48.012;7.862;2023-02-13T13:54:49;10.50;99.90
12303;DHT22;6214;48.012;7.862;2023-02-13T14:02:42;10.30;99.90
12303;DHT22;6214;48.012;7.862;2023-02-13T14:05:21;10.30;99.90
12303;DHT22;6214;48.012;7.862;2023-02-13T14:07:51;10.40;99.90
12303;DHT22;6214;48.012;7.862;2023-02-13T14:25:45;10.40;99.90
12303;DHT22;6214;48.012;7.862;2023-02-13T14:28:24;10.40;99.90
12303;DHT22;6214;48.012;7.862;2023-02-13T14:31:06;10.50;99.90
12303;DHT22;6214;48.012;7.862;2023-02-13T14:33:34;10.40;99.90
12303;DHT22;6214;48.012;7.862;2023-02-13T14:36:05;10.30;99.90
12303;DHT22;6214;48.012;7.862;2023-02-13T14:38:34;10.30;99.90
12303;DHT22;6214;48.012;7.862;2023-02-13T14:41:01;10.20;99.90
12303;DHT22;6214;48.012;7.862;2023-02-13T14:43:50;10.20;99.90
12303;DHT22;6214;48.012;7.862;2023-02-13T14:46:41;10.20;99.90
12303;DHT22;6214;48.012;7.862;2023-02-13T14:49:21;10.00;99.90
12303;DHT22;6214;48.012;7.862;2023-02-13T14:51:53;10.20;99.90
12303;DHT22;6214;48.012;7.862;2023-02-13T14:54:28;10.00;99.90
12303;DHT22;6214;48.012;7.862;2023-02-13T14:59:47;10.20;99.90
12303;DHT22;6214;48.012;7.862;2023-02-13T15:02:23;10.20;99.90
12303;DHT22;6214;48.012;7.862;2023-02-13T15:04:56;10.20;99.90
12303;DHT22;6214;48.012;7.862;2023-02-13T15:07:37;10.10;99.90
12303;DHT22;6214;48.012;7.862;2023-02-13T15:10:42;10.10;99.90
12303;DHT22;6214;48.012;7.862;2023-02-13T15:13:32;10.10;99.90
12303;DHT22;6214;48.012;7.862;2023-02-13T15:16:04;10.00;99.90
12303;DHT22;6214;48.012;7.862;2023-02-13T15:18:49;9.90;99.90
12303;DHT22;6214;48.012;7.862;2023-02-13T15:21:20;10.10;99.90
12303;DHT22;6214;48.012;7.862;2023-02-13T15:23:50;9.90;99.90
12303;DHT22;6214;48.012;7.862;2023-02-13T15:26:23;9.80;99.90
12303;DHT22;6214;48.012;7.862;2023-02-13T15:29:10;9.80;99.90
12303;DHT22;6214;48.012;7.862;2023-02-13T15:31:51;9.90;99.90
12303;DHT22;6214;48.012;7.862;2023-02-13T15:34:27;9.90;99.90
12303;DHT22;6214;48.012;7.862;2023-02-13T15:36:55;9.80;99.90
12303;DHT22;6214;48.012;7.862;2023-02-13T15:39:27;9.80;99.90
12303;DHT22;6214;48.012;7.862;2023-02-13T15:41:59;9.80;99.90
12303;DHT22;6214;48.012;7.862;2023-02-13T15:44:37;9.70;99.90
12303;DHT22;6214;48.012;7.862;2023-02-13T15:49:46;9.50;99.90
12303;DHT22;6214;48.012;7.862;2023-02-13T15:52:32;10.40;99.90
12303;DHT22;6214;48.012;7.862;2023-02-13T15:55:00;9.50;99.90
12303;DHT22;6214;48.012;7.862;2023-02-13T15:57:27;9.40;99.90
12303;DHT22;6214;48.012;7.862;2023-02-13T15:59:55;9.40;99.90
12303;DHT22;6214;48.012;7.862;2023-02-13T16:02:39;9.20;99.90
12303;DHT22;6214;48.012;7.862;2023-02-13T16:05:11;9.10;99.90
12303;DHT22;6214;48.012;7.862;2023-02-13T16:07:50;8.90;99.90
12303;DHT22;6214;48.012;7.862;2023-02-13T16:10:24;8.90;99.90
12303;DHT22;6214;48.012;7.862;2023-02-13T16:12:52;8.90;99.90
12303;DHT22;6214;48.012;7.862;2023-02-13T16:15:21;8.90;99.90
12303;DHT22;6214;48.012;7.862;2023-02-13T16:17:48;8.70;99.90
12303;DHT22;6214;48.012;7.862;2023-02-13T16:20:19;8.50;99.90
12303;DHT22;6214;48.012;7.862;2023-02-13T16:23:15;8.30;99.90
12303;DHT22;6214;48.012;7.862;2023-02-13T16:25:42;8.30;99.90
12303;DHT22;6214;48.012;7.862;2023-02-13T16:28:25;8.20;99.90
12303;DHT22;6214;48.012;7.862;2023-02-13T16:30:58;8.00;99.90
12303;DHT22;6214;48.012;7.862;2023-02-13T16:33:28;7.80;99.90
12303;DHT22;6214;48.012;7.862;2023-02-13T16:35:57;7.70;99.90
12303;DHT22;6214;48.012;7.862;2023-02-13T16:38:40;7.60;99.90
12303;DHT22;6214;48.012;7.862;2023-02-13T16:51:41;7.10;99.90
12303;DHT22;6214;48.012;7.862;2023-02-13T16:54:30;7.00;99.90
12303;DHT22;6214;48.012;7.862;2023-02-13T17:07:38;6.60;99.90
12303;DHT22;6214;48.012;7.862;2023-02-13T17:12:44;6.50;99.90
12303;DHT22;6214;48.012;7.862;2023-02-13T17:15:15;6.40;99.90
12303;DHT22;6214;48.012;7.862;2023-02-13T17:17:42;6.30;99.90
12303;DHT22;6214;48.012;7.862;2023-02-13T17:20:15;6.20;99.90
12303;DHT22;6214;48.012;7.862;2023-02-13T17:22:46;6.10;99.90
12303;DHT22;6214;48.012;7.862;2023-02-13T17:27:52;6.10;99.90
12303;DHT22;6214;48.012;7.862;2023-02-13T17:30:22;5.90;99.90
12303;DHT22;6214;48.012;7.862;2023-02-13T17:32:54;5.90;99.90
12303;DHT22;6214;48.012;7.862;2023-02-13T17:35:22;5.80;99.90
12303;DHT22;6214;48.012;7.862;2023-02-13T17:37:49;5.70;99.90
12303;DHT22;6214;48.012;7.862;2023-02-13T17:40:19;5.70;99.90
12303;DHT22;6214;48.012;7.862;2023-02-13T17:42:50;5.50;99.90
12303;DHT22;6214;48.012;7.862;2023-02-13T17:45:19;5.40;99.90
12303;DHT22;6214;48.012;7.862;2023-02-13T17:47:46;5.40;99.90
12303;DHT22;6214;48.012;7.862;2023-02-13T17:50:13;5.20;99.90
12303;DHT22;6214;48.012;7.862;2023-02-13T17:52:40;5.10;99.90
12303;DHT22;6214;48.012;7.862;2023-02-13T17:55:23;5.00;99.90
12303;DHT22;6214;48.012;7.862;2023-02-13T17:57:52;5.00;99.90
12303;DHT22;6214;48.012;7.862;2023-02-13T18:00:21;5.10;99.90
12303;DHT22;6214;48.012;7.862;2023-02-13T18:02:50;4.90;99.90
12303;DHT22;6214;48.012;7.862;2023-02-13T18:05:17;4.90;99.90
12303;DHT22;6214;48.012;7.862;2023-02-13T18:07:45;4.90;99.90
12303;DHT22;6214;48.012;7.862;2023-02-13T18:10:17;4.80;99.90
12303;DHT22;6214;48.012;7.862;2023-02-13T18:12:46;4.80;99.90
12303;DHT22;6214;48.012;7.862;2023-02-13T18:15:14;4.60;99.90
12303;DHT22;6214;48.012;7.862;2023-02-13T18:17:41;4.50;99.90
12303;DHT22;6214;48.012;7.862;2023-02-13T18:20:14;4.20;99.90
12303;DHT22;6214;48.012;7.862;2023-02-13T18:22:41;4.20;99.90
12303;DHT22;6214;48.012;7.862;2023-02-13T18:25:08;4.20;99.90
12303;DHT22;6214;48.012;7.862;2023-02-13T18:27:35;4.20;99.90
12303;DHT22;6214;48.012;7.862;2023-02-13T18:30:03;4.30;99.90
12303;DHT22;6214;48.012;7.862;2023-02-13T18:32:30;4.20;99.90
12303;DHT22;6214;48.012;7.862;2023-02-13T18:34:57;4.20;99.90
12303;DHT22;6214;48.012;7.862;2023-02-13T18:37:23;4.30;99.90
12303;DHT22;6214;48.012;7.862;2023-02-13T18:39:53;4.40;99.90
12303;DHT22;6214;48.012;7.862;2023-02-13T18:42:20;4.40;99.90
12303;DHT22;6214;48.012;7.862;2023-02-13T18:44:46;4.40;99.90
12303;DHT22;6214;48.012;7.862;2023-02-13T18:47:13;4.30;99.90
12303;DHT22;6214;48.012;7.862;2023-02-13T18:49:40;4.30;99.90
12303;DHT22;6214;48.012;7.862;2023-02-13T18:52:07;4.20;99.90
12303;DHT22;6214;48.012;7.862;2023-02-13T18:54:35;4.20;99.90
12303;DHT22;6214;48.012;7.862;2023-02-13T18:57:02;4.10;99.90
12303;DHT22;6214;48.012;7.862;2023-02-13T18:59:28;4.10;99.90
12303;DHT22;6214;48.012;7.862;2023-02-13T19:01:55;4.00;99.90
12303;DHT22;6214;48.012;7.862;2023-02-13T19:04:22;3.80;99.90
12303;DHT22;6214;48.012;7.862;2023-02-13T19:06:49;3.60;99.90
12303;DHT22;6214;48.012;7.862;2023-02-13T19:09:16;3.40;99.90
12303;DHT22;6214;48.012;7.862;2023-02-13T19:11:43;3.40;99.90
12303;DHT22;6214;48.012;7.862;2023-02-13T19:14:11;3.40;99.90
12303;DHT22;6214;48.012;7.862;2023-02-13T19:16:40;3.50;99.90
12303;DHT22;6214;48.012;7.862;2023-02-13T19:19:07;3.50;99.90
12303;DHT22;6214;48.012;7.862;2023-02-13T19:21:36;3.40;99.90